sensor_id;sensor_type;location;lat;lon;timestamp;temperature;humidity
33007;DHT22;19361;51.598;7.650;2023-06-22T00:05:08;25.90;45.00
33007;DHT22;19361;51.598;7.650;2023-06-22T00:10:29;25.90;45.20
33007;DHT22;19361;51.598;7.650;2023-06-22T00:15:50;25.90;45.40
33007;DHT22;19361;51.598;7.650;2023-06-22T00:21:11;25.80;45.40
33007;DHT22;19361;51.598;7.650;2023-06-22T00:26:33;25.80;45.80
33007;DHT22;19361;51.598;7.650;2023-06-22T00:31:54;25.70;45.80
33007;DHT22;19361;51.598;7.650;2023-06-22T00:37:15;25.60;46.00
33007;DHT22;19361;51.598;7.650;2023-06-22T00:42:37;25.60;46.20
33007;DHT22;19361;51.598;7.650;2023-06-22T00:47:59;25.50;46.40
33007;DHT22;19361;51.598;7.650;2023-06-22T00:53:20;25.40;46.40
33007;DHT22;19361;51.598;7.650;2023-06-22T00:58:41;25.40;46.70
33007;DHT22;19361;51.598;7.650;2023-06-22T01:04:02;25.30;46.70
33007;DHT22;19361;51.598;7.650;2023-06-22T01:09:30;25.30;46.90
33007;DHT22;19361;51.598;7.650;2023-06-22T01:15:02;25.20;47.50
33007;DHT22;19361;51.598;7.650;2023-06-22T01:20:27;25.20;47.60
33007;DHT22;19361;51.598;7.650;2023-06-22T01:32:05;25.10;48.00
33007;DHT22;19361;51.598;7.650;2023-06-22T01:37:28;25.10;47.70
33007;DHT22;19361;51.598;7.650;2023-06-22T01:42:50;25.00;47.90
33007;DHT22;19361;51.598;7.650;2023-06-22T01:48:11;25.00;48.20
33007;DHT22;19361;51.598;7.650;2023-06-22T01:53:32;25.00;48.30
33007;DHT22;19361;51.598;7.650;2023-06-22T01:59:17;25.00;48.40
33007;DHT22;19361;51.598;7.650;2023-06-22T02:05:03;24.90;49.40
33007;DHT22;19361;51.598;7.650;2023-06-22T02:10:28;24.90;49.10
33007;DHT22;19361;51.598;7.650;2023-06-22T02:15:49;24.90;48.80
33007;DHT22;19361;51.598;7.650;2023-06-22T02:21:11;24.90;49.00
33007;DHT22;19361;51.598;7.650;2023-06-22T02:26:32;24.80;49.10
33007;DHT22;19361;51.598;7.650;2023-06-22T02:31:54;24.80;49.20
33007;DHT22;19361;51.598;7.650;2023-06-22T02:37:16;24.80;49.50
33007;DHT22;19361;51.598;7.650;2023-06-22T02:42:39;24.70;49.50
33007;DHT22;19361;51.598;7.650;2023-06-22T02:48:00;24.70;49.80
33007;DHT22;19361;51.598;7.650;2023-06-22T02:53:22;24.60;49.80
33007;DHT22;19361;51.598;7.650;2023-06-22T02:58:43;24.60;50.00
33007;DHT22;19361;51.598;7.650;2023-06-22T03:04:04;24.50;50.00
33007;DHT22;19361;51.598;7.650;2023-06-22T03:09:25;24.40;50.80
33007;DHT22;19361;51.598;7.650;2023-06-22T03:14:46;24.30;50.90
33007;DHT22;19361;51.598;7.650;2023-06-22T03:20:08;24.20;51.40
33007;DHT22;19361;51.598;7.650;2023-06-22T03:25:34;24.10;51.50
33007;DHT22;19361;51.598;7.650;2023-06-22T03:30:59;24.00;51.80
33007;DHT22;19361;51.598;7.650;2023-06-22T03:36:20;24.00;52.30
33007;DHT22;19361;51.598;7.650;2023-06-22T03:41:41;23.90;52.10
33007;DHT22;19361;51.598;7.650;2023-06-22T03:47:04;23.80;52.10
33007;DHT22;19361;51.598;7.650;2023-06-22T03:52:25;23.80;52.40
33007;DHT22;19361;51.598;7.650;2023-06-22T03:57:46;23.80;53.00
33007;DHT22;19361;51.598;7.650;2023-06-22T04:03:07;23.80;52.60
33007;DHT22;19361;51.598;7.650;2023-06-22T04:08:28;23.80;52.60
33007;DHT22;19361;51.598;7.650;2023-06-22T04:13:49;23.90;52.80
33007;DHT22;19361;51.598;7.650;2023-06-22T04:19:12;23.90;52.90
33007;DHT22;19361;51.598;7.650;2023-06-22T04:24:38;23.90;52.90
33007;DHT22;19361;51.598;7.650;2023-06-22T04:29:59;24.00;53.00
33007;DHT22;19361;51.598;7.650;2023-06-22T04:35:21;23.90;52.90
33007;DHT22;19361;51.598;7.650;2023-06-22T04:40:43;24.00;53.10
33007;DHT22;19361;51.598;7.650;2023-06-22T04:46:04;24.00;53.20
33007;DHT22;19361;51.598;7.650;2023-06-22T04:51:25;24.10;53.40
33007;DHT22;19361;51.598;7.650;2023-06-22T04:56:51;24.20;53.40
33007;DHT22;19361;51.598;7.650;2023-06-22T05:02:18;24.50;53.80
33007;DHT22;19361;51.598;7.650;2023-06-22T05:07:43;24.80;53.20
33007;DHT22;19361;51.598;7.650;2023-06-22T05:13:05;25.00;52.60
33007;DHT22;19361;51.598;7.650;2023-06-22T05:18:28;25.10;52.00
33007;DHT22;19361;51.598;7.650;2023-06-22T05:23:51;25.00;51.90
33007;DHT22;19361;51.598;7.650;2023-06-22T05:29:12;25.00;52.00
33007;DHT22;19361;51.598;7.650;2023-06-22T05:34:33;24.90;52.50
33007;DHT22;19361;51.598;7.650;2023-06-22T05:39:54;24.80;52.70
33007;DHT22;19361;51.598;7.650;2023-06-22T05:45:16;24.70;52.90
33007;DHT22;19361;51.598;7.650;2023-06-22T05:50:37;24.70;52.90
33007;DHT22;19361;51.598;7.650;2023-06-22T05:55:58;24.60;52.40
33007;DHT22;19361;51.598;7.650;2023-06-22T06:01:19;24.60;52.30
33007;DHT22;19361;51.598;7.650;2023-06-22T06:06:41;24.60;52.30
33007;DHT22;19361;51.598;7.650;2023-06-22T06:12:02;24.60;52.50
33007;DHT22;19361;51.598;7.650;2023-06-22T06:17:23;24.60;52.50
33007;DHT22;19361;51.598;7.650;2023-06-22T06:22:45;24.60;52.70
33007;DHT22;19361;51.598;7.650;2023-06-22T06:28:06;24.60;52.90
33007;DHT22;19361;51.598;7.650;2023-06-22T06:33:27;24.60;53.00
33007;DHT22;19361;51.598;7.650;2023-06-22T06:38:48;24.60;53.10
33007;DHT22;19361;51.598;7.650;2023-06-22T06:44:09;24.60;53.10
33007;DHT22;19361;51.598;7.650;2023-06-22T06:49:30;24.60;53.80
33007;DHT22;19361;51.598;7.650;2023-06-22T06:54:51;24.60;54.10
33007;DHT22;19361;51.598;7.650;2023-06-22T07:00:13;24.60;54.40
33007;DHT22;19361;51.598;7.650;2023-06-22T07:05:35;24.60;54.80
33007;DHT22;19361;51.598;7.650;2023-06-22T07:10:57;24.60;55.30
33007;DHT22;19361;51.598;7.650;2023-06-22T07:16:18;24.60;56.00
33007;DHT22;19361;51.598;7.650;2023-06-22T07:21:39;24.60;56.10
33007;DHT22;19361;51.598;7.650;2023-06-22T07:27:00;24.70;56.40
33007;DHT22;19361;51.598;7.650;2023-06-22T07:32:23;24.80;56.30
33007;DHT22;19361;51.598;7.650;2023-06-22T07:37:44;24.80;56.40
33007;DHT22;19361;51.598;7.650;2023-06-22T07:43:06;25.00;56.70
33007;DHT22;19361;51.598;7.650;2023-06-22T07:48:27;25.20;56.50
33007;DHT22;19361;51.598;7.650;2023-06-22T07:53:48;25.30;56.30
33007;DHT22;19361;51.598;7.650;2023-06-22T07:59:09;25.40;56.40
33007;DHT22;19361;51.598;7.650;2023-06-22T08:04:30;25.50;56.40
33007;DHT22;19361;51.598;7.650;2023-06-22T08:09:55;25.60;56.60
33007;DHT22;19361;51.598;7.650;2023-06-22T08:15:16;25.70;56.80
33007;DHT22;19361;51.598;7.650;2023-06-22T08:20:37;25.70;56.70
33007;DHT22;19361;51.598;7.650;2023-06-22T08:25:58;25.80;56.80
33007;DHT22;19361;51.598;7.650;2023-06-22T08:31:19;25.90;57.20
33007;DHT22;19361;51.598;7.650;2023-06-22T08:36:40;26.00;57.80
33007;DHT22;19361;51.598;7.650;2023-06-22T08:42:05;26.10;57.90
33007;DHT22;19361;51.598;7.650;2023-06-22T08:47:28;26.30;58.00
33007;DHT22;19361;51.598;7.650;2023-06-22T08:52:49;26.50;58.00
33007;DHT22;19361;51.598;7.650;2023-06-22T08:58:10;26.70;57.80
33007;DHT22;19361;51.598;7.650;2023-06-22T09:03:32;27.00;57.30
33007;DHT22;19361;51.598;7.650;2023-06-22T09:08:53;27.40;56.20
33007;DHT22;19361;51.598;7.650;2023-06-22T09:14:14;27.60;55.40
33007;DHT22;19361;51.598;7.650;2023-06-22T09:19:35;27.70;54.80
33007;DHT22;19361;51.598;7.650;2023-06-22T09:24:56;27.80;54.60
33007;DHT22;19361;51.598;7.650;2023-06-22T09:30:17;27.90;54.40
33007;DHT22;19361;51.598;7.650;2023-06-22T09:35:38;28.10;54.60
33007;DHT22;19361;51.598;7.650;2023-06-22T09:40:59;28.40;54.10
33007;DHT22;19361;51.598;7.650;2023-06-22T09:46:20;28.60;53.70
33007;DHT22;19361;51.598;7.650;2023-06-22T09:51:45;28.90;53.30
33007;DHT22;19361;51.598;7.650;2023-06-22T09:57:06;29.20;52.60
33007;DHT22;19361;51.598;7.650;2023-06-22T10:02:27;29.50;51.50
33007;DHT22;19361;51.598;7.650;2023-06-22T10:07:50;29.80;50.80
33007;DHT22;19361;51.598;7.650;2023-06-22T10:13:11;30.00;50.30
33007;DHT22;19361;51.598;7.650;2023-06-22T10:18:32;30.20;49.60
33007;DHT22;19361;51.598;7.650;2023-06-22T10:23:54;30.30;48.70
33007;DHT22;19361;51.598;7.650;2023-06-22T10:29:16;30.50;48.90
33007;DHT22;19361;51.598;7.650;2023-06-22T10:34:37;30.60;48.20
33007;DHT22;19361;51.598;7.650;2023-06-22T10:39:58;30.70;48.00
33007;DHT22;19361;51.598;7.650;2023-06-22T10:45:19;30.80;48.20
33007;DHT22;19361;51.598;7.650;2023-06-22T10:50:40;30.80;47.70
33007;DHT22;19361;51.598;7.650;2023-06-22T10:56:01;30.90;46.80
33007;DHT22;19361;51.598;7.650;2023-06-22T11:01:22;30.90;46.90
33007;DHT22;19361;51.598;7.650;2023-06-22T11:06:44;31.00;46.90
33007;DHT22;19361;51.598;7.650;2023-06-22T11:12:05;31.00;45.40
33007;DHT22;19361;51.598;7.650;2023-06-22T11:17:27;31.10;45.20
33007;DHT22;19361;51.598;7.650;2023-06-22T11:22:48;31.20;45.30
33007;DHT22;19361;51.598;7.650;2023-06-22T11:28:09;31.20;45.50
33007;DHT22;19361;51.598;7.650;2023-06-22T11:33:30;31.10;45.20
33007;DHT22;19361;51.598;7.650;2023-06-22T11:38:51;31.00;48.30
33007;DHT22;19361;51.598;7.650;2023-06-22T11:44:12;30.80;48.50
33007;DHT22;19361;51.598;7.650;2023-06-22T11:49:33;30.50;50.20
33007;DHT22;19361;51.598;7.650;2023-06-22T11:54:54;30.30;50.60
33007;DHT22;19361;51.598;7.650;2023-06-22T12:00:16;29.90;51.50
33007;DHT22;19361;51.598;7.650;2023-06-22T12:05:38;29.70;52.80
33007;DHT22;19361;51.598;7.650;2023-06-22T12:10:59;29.30;54.00
33007;DHT22;19361;51.598;7.650;2023-06-22T12:16:20;29.10;54.50
33007;DHT22;19361;51.598;7.650;2023-06-22T12:21:42;28.80;54.90
33007;DHT22;19361;51.598;7.650;2023-06-22T12:27:06;28.60;55.80
33007;DHT22;19361;51.598;7.650;2023-06-22T12:32:27;28.40;57.00
33007;DHT22;19361;51.598;7.650;2023-06-22T12:37:48;28.10;57.50
33007;DHT22;19361;51.598;7.650;2023-06-22T12:43:09;27.90;58.00
33007;DHT22;19361;51.598;7.650;2023-06-22T12:48:30;27.70;58.50
33007;DHT22;19361;51.598;7.650;2023-06-22T12:53:51;27.60;58.90
33007;DHT22;19361;51.598;7.650;2023-06-22T12:59:12;27.50;59.70
33007;DHT22;19361;51.598;7.650;2023-06-22T13:04:33;27.30;61.60
33007;DHT22;19361;51.598;7.650;2023-06-22T13:09:55;27.20;62.30
33007;DHT22;19361;51.598;7.650;2023-06-22T13:15:16;26.90;63.10
33007;DHT22;19361;51.598;7.650;2023-06-22T13:20:37;26.80;63.10
33007;DHT22;19361;51.598;7.650;2023-06-22T13:25:58;26.70;63.40
33007;DHT22;19361;51.598;7.650;2023-06-22T13:31:21;26.80;64.00
33007;DHT22;19361;51.598;7.650;2023-06-22T13:36:42;26.90;64.20
33007;DHT22;19361;51.598;7.650;2023-06-22T13:42:03;27.20;64.90
33007;DHT22;19361;51.598;7.650;2023-06-22T13:47:24;27.40;63.50
33007;DHT22;19361;51.598;7.650;2023-06-22T13:52:46;27.50;62.80
33007;DHT22;19361;51.598;7.650;2023-06-22T13:58:07;27.60;62.80
33007;DHT22;19361;51.598;7.650;2023-06-22T14:03:28;27.70;62.90
33007;DHT22;19361;51.598;7.650;2023-06-22T14:08:49;27.90;63.60
33007;DHT22;19361;51.598;7.650;2023-06-22T14:14:11;28.10;62.40
33007;DHT22;19361;51.598;7.650;2023-06-22T14:19:32;28.10;60.60
33007;DHT22;19361;51.598;7.650;2023-06-22T14:24:53;28.10;60.70
33007;DHT22;19361;51.598;7.650;2023-06-22T14:30:16;28.00;60.90
33007;DHT22;19361;51.598;7.650;2023-06-22T14:35:37;28.00;60.90
33007;DHT22;19361;51.598;7.650;2023-06-22T14:40:58;27.90;60.90
33007;DHT22;19361;51.598;7.650;2023-06-22T14:46:20;27.90;60.80
33007;DHT22;19361;51.598;7.650;2023-06-22T14:51:41;27.90;61.10
33007;DHT22;19361;51.598;7.650;2023-06-22T14:57:02;27.90;61.80
33007;DHT22;19361;51.598;7.650;2023-06-22T15:02:23;28.00;61.70
33007;DHT22;19361;51.598;7.650;2023-06-22T15:07:44;28.10;61.90
33007;DHT22;19361;51.598;7.650;2023-06-22T15:13:05;28.10;61.00
33007;DHT22;19361;51.598;7.650;2023-06-22T15:18:27;28.10;60.50
33007;DHT22;19361;51.598;7.650;2023-06-22T15:23:48;28.10;60.40
33007;DHT22;19361;51.598;7.650;2023-06-22T15:29:09;28.10;60.80
33007;DHT22;19361;51.598;7.650;2023-06-22T15:34:30;28.10;60.80
33007;DHT22;19361;51.598;7.650;2023-06-22T15:39:51;28.10;60.60
33007;DHT22;19361;51.598;7.650;2023-06-22T15:45:12;28.00;60.90
33007;DHT22;19361;51.598;7.650;2023-06-22T15:50:33;28.00;61.10
33007;DHT22;19361;51.598;7.650;2023-06-22T15:55:54;27.80;60.80
33007;DHT22;19361;51.598;7.650;2023-06-22T16:01:15;27.70;61.00
33007;DHT22;19361;51.598;7.650;2023-06-22T16:06:36;27.60;61.10
33007;DHT22;19361;51.598;7.650;2023-06-22T16:11:58;27.40;61.50
33007;DHT22;19361;51.598;7.650;2023-06-22T16:17:19;27.20;61.90
33007;DHT22;19361;51.598;7.650;2023-06-22T16:22:40;27.00;62.30
33007;DHT22;19361;51.598;7.650;2023-06-22T16:28:01;26.80;63.20
33007;DHT22;19361;51.598;7.650;2023-06-22T16:33:22;26.70;64.50
33007;DHT22;19361;51.598;7.650;2023-06-22T16:38:43;26.60;65.70
33007;DHT22;19361;51.598;7.650;2023-06-22T16:44:05;26.40;64.90
33007;DHT22;19361;51.598;7.650;2023-06-22T16:49:27;26.20;65.40
33007;DHT22;19361;51.598;7.650;2023-06-22T16:54:48;26.10;65.80
33007;DHT22;19361;51.598;7.650;2023-06-22T17:00:09;25.90;66.10
33007;DHT22;19361;51.598;7.650;2023-06-22T17:05:32;25.70;67.40
33007;DHT22;19361;51.598;7.650;2023-06-22T17:10:53;25.60;67.70
33007;DHT22;19361;51.598;7.650;2023-06-22T17:16:15;25.50;67.70
33007;DHT22;19361;51.598;7.650;2023-06-22T17:21:37;25.50;68.20
33007;DHT22;19361;51.598;7.650;2023-06-22T17:26:58;25.40;68.20
33007;DHT22;19361;51.598;7.650;2023-06-22T17:32:20;25.30;68.20
33007;DHT22;19361;51.598;7.650;2023-06-22T17:43:14;25.20;68.40
33007;DHT22;19361;51.598;7.650;2023-06-22T17:48:43;25.10;68.30
33007;DHT22;19361;51.598;7.650;2023-06-22T17:54:06;25.10;68.70
33007;DHT22;19361;51.598;7.650;2023-06-22T17:59:28;25.00;68.60
33007;DHT22;19361;51.598;7.650;2023-06-22T18:04:50;24.90;68.90
33007;DHT22;19361;51.598;7.650;2023-06-22T18:10:11;24.80;69.00
33007;DHT22;19361;51.598;7.650;2023-06-22T18:15:32;24.80;69.00
33007;DHT22;19361;51.598;7.650;2023-06-22T18:20:56;24.70;69.90
33007;DHT22;19361;51.598;7.650;2023-06-22T18:26:20;24.70;69.50
33007;DHT22;19361;51.598;7.650;2023-06-22T18:31:44;24.60;68.60
33007;DHT22;19361;51.598;7.650;2023-06-22T18:37:14;24.60;67.30
33007;DHT22;19361;51.598;7.650;2023-06-22T18:42:43;24.50;67.30
33007;DHT22;19361;51.598;7.650;2023-06-22T18:48:05;24.40;67.20
33007;DHT22;19361;51.598;7.650;2023-06-22T18:53:27;24.40;67.20
33007;DHT22;19361;51.598;7.650;2023-06-22T18:58:56;24.30;67.90
33007;DHT22;19361;51.598;7.650;2023-06-22T19:04:19;24.30;68.50
33007;DHT22;19361;51.598;7.650;2023-06-22T19:21:21;24.20;70.80
33007;DHT22;19361;51.598;7.650;2023-06-22T19:26:50;24.20;71.20
33007;DHT22;19361;51.598;7.650;2023-06-22T19:32:11;24.20;71.90
33007;DHT22;19361;51.598;7.650;2023-06-22T19:37:35;24.20;72.50
33007;DHT22;19361;51.598;7.650;2023-06-22T19:42:56;24.20;72.30
33007;DHT22;19361;51.598;7.650;2023-06-22T19:48:17;24.20;72.50
33007;DHT22;19361;51.598;7.650;2023-06-22T19:53:41;24.20;72.20
33007;DHT22;19361;51.598;7.650;2023-06-22T19:59:22;24.30;72.20
33007;DHT22;19361;51.598;7.650;2023-06-22T20:04:44;24.30;72.40
33007;DHT22;19361;51.598;7.650;2023-06-22T20:10:10;24.40;72.00
33007;DHT22;19361;51.598;7.650;2023-06-22T20:15:31;24.40;72.20
33007;DHT22;19361;51.598;7.650;2023-06-22T20:20:52;24.40;72.00
33007;DHT22;19361;51.598;7.650;2023-06-22T20:26:13;24.40;71.90
33007;DHT22;19361;51.598;7.650;2023-06-22T20:31:37;24.40;71.90
33007;DHT22;19361;51.598;7.650;2023-06-22T20:36:58;24.50;71.90
33007;DHT22;19361;51.598;7.650;2023-06-22T20:42:19;24.50;72.20
33007;DHT22;19361;51.598;7.650;2023-06-22T20:47:40;24.40;72.40
33007;DHT22;19361;51.598;7.650;2023-06-22T20:53:03;24.40;72.50
33007;DHT22;19361;51.598;7.650;2023-06-22T20:58:25;24.40;72.30
33007;DHT22;19361;51.598;7.650;2023-06-22T21:03:46;24.30;72.70
33007;DHT22;19361;51.598;7.650;2023-06-22T21:09:07;24.30;72.70
33007;DHT22;19361;51.598;7.650;2023-06-22T21:14:28;24.30;72.70
33007;DHT22;19361;51.598;7.650;2023-06-22T21:19:49;24.20;72.90
33007;DHT22;19361;51.598;7.650;2023-06-22T21:25:13;24.20;73.20
33007;DHT22;19361;51.598;7.650;2023-06-22T21:30:34;24.20;73.30
33007;DHT22;19361;51.598;7.650;2023-06-22T21:35:55;24.20;73.20
33007;DHT22;19361;51.598;7.650;2023-06-22T21:41:16;24.10;73.20
33007;DHT22;19361;51.598;7.650;2023-06-22T21:46:37;24.00;73.60
33007;DHT22;19361;51.598;7.650;2023-06-22T21:51:59;24.00;73.40
33007;DHT22;19361;51.598;7.650;2023-06-22T21:57:20;24.00;73.30
33007;DHT22;19361;51.598;7.650;2023-06-22T22:02:45;23.90;73.20
33007;DHT22;19361;51.598;7.650;2023-06-22T22:08:06;23.80;73.20
33007;DHT22;19361;51.598;7.650;2023-06-22T22:13:28;23.80;73.40
33007;DHT22;19361;51.598;7.650;2023-06-22T22:18:51;23.70;71.80
33007;DHT22;19361;51.598;7.650;2023-06-22T22:24:12;23.50;69.60
33007;DHT22;19361;51.598;7.650;2023-06-22T22:29:34;23.20;69.00
33007;DHT22;19361;51.598;7.650;2023-06-22T22:34:55;22.80;69.00
33007;DHT22;19361;51.598;7.650;2023-06-22T22:40:16;22.50;69.20
33007;DHT22;19361;51.598;7.650;2023-06-22T22:45:38;22.20;69.50
33007;DHT22;19361;51.598;7.650;2023-06-22T22:50:59;21.90;70.10
33007;DHT22;19361;51.598;7.650;2023-06-22T22:56:21;21.60;70.90
33007;DHT22;19361;51.598;7.650;2023-06-22T23:01:44;21.40;72.20
33007;DHT22;19361;51.598;7.650;2023-06-22T23:07:05;21.20;73.50
33007;DHT22;19361;51.598;7.650;2023-06-22T23:12:27;20.90;73.90
33007;DHT22;19361;51.598;7.650;2023-06-22T23:17:48;20.60;73.80
33007;DHT22;19361;51.598;7.650;2023-06-22T23:23:09;20.40;74.60
33007;DHT22;19361;51.598;7.650;2023-06-22T23:28:30;20.10;75.40
33007;DHT22;19361;51.598;7.650;2023-06-22T23:33:51;19.90;75.90
33007;DHT22;19361;51.598;7.650;2023-06-22T23:39:13;19.70;76.60
33007;DHT22;19361;51.598;7.650;2023-06-22T23:44:36;19.60;77.10
33007;DHT22;19361;51.598;7.650;2023-06-22T23:49:57;19.50;77.10
33007;DHT22;19361;51.598;7.650;2023-06-22T23:55:19;19.50;77.70
